Ana Sayfa
METAR-TAF:

METAR-TAF

Havaalanları :

İskenderiye-Borg El Arab, Mısır

Enlem: 31-31N, Boylam: 030-10E, yükseklik: 54 m

Güncel hava durumu gözlemi

Rapor saat 09:00 UTC de 51 dakika önce yapıldı.
Rüzgar kuzeybatıdan 10 kt
Sıcaklık 31°C
Nem 55%
Basınç 1008 hPa
Görüş mesafesi 10 km veya daha fazla
1500 m altında bulut yok ve kümülonimbus yok

METAR: HEBA 250900Z 32010KT CAVOK 31/21 Q1008 NOSIG

Saat: 11:51 (09:51 UTC)

Tahmin

Rapor saat 05:00 UTC de 4 saat ve 51 dakika önce yapıldı.
Ayın 25'si saat 06 UTC'den ayın 26'si saat 12 UTC'ye kadar geçerli Tahmin
Rüzgar kuzeybatıdan 10 kt
Görüş mesafesi 10 km veya daha fazla
1500 m altında bulut yok ve kümülonimbus yok

TAF: HEBA 250500Z 2506/2612 32010KT CAVOK

4.000'den fazla havaalanı için hava durumu gözlemleri ve tahminleri (METAR ve TAF raporları).

Kullanılabilir istasyonlar harita üzerinde sarı ve kırmızı noktalarla gösterilir.

İstasyonun adını görmek için fareyi noktanın üzerinde gezdirin.

Sonrasında hava gözlem ve tahminlerini görmek için tıklayın.

Haritayı değiştirmek için: yaklaştırmak için siyah artı işaretli yeşil düğmeye ve uzaklaştırmak için de eksi işaretli düğmeye hızla tıklayın; bitişik haritalar için yeşil okları kullanın.


METAR-TAF: